Time;durP1;ratioP1;P1;durP2;ratioP2;P2;SDS_P1;SDS_P2;PMS_P1;PMS_P2;Temp;Humidity;BMP_temperature;BMP_pressure;BME280_temperature;BME280_humidity;BME280_pressure;Samples;Min_cycle;Max_cycle;Signal;HPM_P1;HPM_P2
2022/07/18 00:00:44;;;;;;;2.35;2.10;;;;;;;14.21;87.97;100140.01;1682517;84;21007;-69
2022/07/18 00:03:13;;;;;;;2.08;1.77;;;;;;;14.23;88.11;100142.74;1689629;84;21570;-72
2022/07/18 00:05:39;;;;;;;2.08;1.90;;;;;;;14.23;88.26;100144.09;1689563;84;21085;-71
2022/07/18 00:08:07;;;;;;;1.95;1.80;;;;;;;14.22;88.37;100142.46;1697312;84;20995;-71
2022/07/18 00:10:34;;;;;;;1.80;1.70;;;;;;;14.21;88.58;100146.77;1687641;85;22408;-73
2022/07/18 00:13:02;;;;;;;3.25;2.20;;;;;;;14.22;88.74;100147.88;1689584;85;21101;-71
2022/07/18 00:15:29;;;;;;;2.10;1.85;;;;;;;14.22;88.98;100145.70;1689466;84;21055;-70
2022/07/18 00:17:58;;;;;;;2.00;1.80;;;;;;;14.22;89.12;100152.47;1685462;84;20964;-69
2022/07/18 00:20:24;;;;;;;4.15;1.67;;;;;;;14.22;89.23;100148.41;1702857;84;21103;-71
2022/07/18 00:22:51;;;;;;;1.80;1.57;;;;;;;14.21;89.30;100146.77;1687092;84;22052;-72
2022/07/18 00:25:18;;;;;;;2.10;1.70;;;;;;;14.20;89.52;100149.19;1684116;84;21554;-70
2022/07/18 00:27:46;;;;;;;2.40;2.15;;;;;;;14.18;89.82;100150.83;1703253;84;21081;-68
2022/07/18 00:30:14;;;;;;;3.87;2.47;;;;;;;14.18;89.93;100143.25;1703027;84;21069;-70
2022/07/18 00:32:41;;;;;;;2.20;1.90;;;;;;;14.18;90.11;100145.95;1689550;84;21067;-70
2022/07/18 00:35:09;;;;;;;2.10;1.90;;;;;;;14.20;90.22;100158.13;1689591;85;21576;-71
2022/07/18 00:37:36;;;;;;;3.58;3.27;;;;;;;14.20;90.26;100153.25;1671824;85;21075;-71
2022/07/18 00:40:06;;;;;;;2.35;2.15;;;;;;;14.17;90.18;100157.31;1687534;84;21548;-70
2022/07/18 00:42:33;;;;;;;2.90;2.42;;;;;;;14.14;90.25;100155.14;1689100;84;21014;-71
2022/07/18 00:45:00;;;;;;;2.83;2.37;;;;;;;14.10;90.23;100154.01;1687477;85;21514;-70
2022/07/18 00:47:27;;;;;;;3.65;2.22;;;;;;;14.07;90.35;100160.48;1703468;84;21278;-69
2022/07/18 00:49:55;;;;;;;4.20;2.27;;;;;;;14.04;90.51;100161.84;1687104;85;21019;-69
2022/07/18 00:52:22;;;;;;;6.55;1.92;;;;;;;14.01;90.75;100160.98;1687125;85;21059;-72
2022/07/18 00:54:48;;;;;;;3.12;2.40;;;;;;;14.00;90.96;100162.09;1670384;84;21069;-70
2022/07/18 00:57:15;;;;;;;1.87;1.77;;;;;;;13.99;91.08;100165.86;1677580;84;21009;-69
2022/07/18 01:02:28;;;;;;;2.00;1.72;;;;;;;13.96;91.15;100169.06;1689478;85;21030;-70
2022/07/18 01:04:57;;;;;;;2.30;2.15;;;;;;;13.91;91.28;100163.62;1698759;84;21055;-71
2022/07/18 01:07:23;;;;;;;2.72;2.47;;;;;;;13.85;91.43;100172.80;1702477;84;21040;-69
2022/07/18 01:09:52;;;;;;;2.60;2.40;;;;;;;13.80;91.65;100172.75;1677110;85;21039;-72
2022/07/18 01:12:18;;;;;;;2.25;2.08;;;;;;;13.76;92.03;100171.11;1698634;84;21208;-71
2022/07/18 01:14:46;;;;;;;3.75;2.80;;;;;;;13.74;92.45;100168.38;1684906;85;20949;-71
2022/07/18 01:17:17;;;;;;;2.35;2.15;;;;;;;13.74;92.83;100172.42;1698747;83;21022;-70
2022/07/18 01:19:44;;;;;;;5.28;2.70;;;;;;;13.75;93.01;100178.94;1669807;85;21037;-71
2022/07/18 01:22:13;;;;;;;2.80;2.50;;;;;;;13.73;93.15;100175.66;1698583;84;21112;-71
2022/07/18 01:24:41;;;;;;;3.02;2.35;;;;;;;13.70;93.48;100187.01;1669713;85;22202;-74
2022/07/18 01:27:15;;;;;;;2.30;2.10;;;;;;;13.67;93.86;100182.66;1684921;84;21052;-70
2022/07/18 01:29:43;;;;;;;3.80;2.75;;;;;;;13.64;94.28;100179.92;1698497;84;21044;-70
2022/07/18 01:32:10;;;;;;;4.53;3.30;;;;;;;13.64;94.68;100177.22;1698356;84;21072;-71
2022/07/18 01:34:37;;;;;;;3.40;2.75;;;;;;;13.64;95.13;100177.22;1684940;85;21074;-70
2022/07/18 01:37:04;;;;;;;7.05;2.80;;;;;;;13.66;95.37;100184.55;1685075;84;21255;-70
2022/07/18 01:39:31;;;;;;;3.70;3.40;;;;;;;13.68;95.56;100182.38;1684315;84;21012;-72
2022/07/18 01:42:03;;;;;;;2.35;2.20;;;;;;;13.71;95.72;100182.42;1698060;84;21000;-71
2022/07/18 01:44:30;;;;;;;4.25;2.50;;;;;;;13.74;95.70;100190.81;1684531;84;21016;-71
2022/07/18 01:46:57;;;;;;;4.78;2.92;;;;;;;13.74;95.77;100191.36;1685096;84;21072;-71
2022/07/18 01:49:28;;;;;;;7.08;2.92;;;;;;;13.73;95.89;100186.48;1684903;84;21069;-71
2022/07/18 01:51:54;;;;;;;2.80;2.50;;;;;;;13.75;96.03;100190.28;1698114;84;20971;-72
2022/07/18 01:54:24;;;;;;;3.60;2.75;;;;;;;13.81;96.20;100186.56;1673163;85;21083;-71
2022/07/18 01:56:52;;;;;;;4.25;2.77;;;;;;;13.86;96.10;100187.95;1698664;83;21112;-71
2022/07/18 01:59:19;;;;;;;4.17;2.27;;;;;;;13.88;96.03;100187.13;1685001;84;21552;-72
2022/07/18 02:01:46;;;;;;;2.62;2.17;;;;;;;13.89;96.01;100188.77;1698322;84;21118;-71
2022/07/18 02:04:13;;;;;;;3.37;2.47;;;;;;;13.90;95.98;100190.41;1684377;84;21011;-71
2022/07/18 02:06:40;;;;;;;2.80;2.60;;;;;;;13.90;95.98;100189.87;1685015;84;21119;-74
2022/07/18 02:09:07;;;;;;;6.05;3.30;;;;;;;13.89;96.25;100196.34;1701088;84;21075;-71
2022/07/18 02:11:34;;;;;;;3.10;2.80;;;;;;;13.86;96.38;100196.84;1667837;84;21541;-70
2022/07/18 02:14:04;;;;;;;6.15;3.05;;;;;;;13.87;96.53;100201.72;1674923;85;21595;-72
2022/07/18 02:16:33;;;;;;;3.02;2.52;;;;;;;13.89;96.63;100196.89;1689300;85;21514;-72
2022/07/18 02:19:01;;;;;;;4.37;2.80;;;;;;;13.92;96.69;100202.58;1703367;84;22198;-73
2022/07/18 02:21:29;;;;;;;3.95;3.17;;;;;;;13.94;96.65;100197.73;1689137;84;20997;-73
2022/07/18 02:23:57;;;;;;;3.62;3.27;;;;;;;13.96;96.47;100198.81;1689515;84;21015;-74
2022/07/18 02:26:25;;;;;;;4.28;2.83;;;;;;;13.95;96.46;100202.62;1703484;84;22345;-72
2022/07/18 02:28:52;;;;;;;3.80;3.15;;;;;;;13.93;96.42;100200.16;1689714;85;21015;-72
2022/07/18 02:31:19;;;;;;;3.45;3.15;;;;;;;13.91;96.55;100196.89;1702961;83;21509;-71
2022/07/18 02:33:47;;;;;;;6.30;3.72;;;;;;;13.90;96.68;100207.45;1689572;85;21150;-73
2022/07/18 02:36:13;;;;;;;5.12;3.30;;;;;;;13.89;96.67;100207.16;1689514;85;21041;-72
2022/07/18 02:38:40;;;;;;;4.35;2.72;;;;;;;13.88;96.79;100206.88;1689565;84;21157;-72
2022/07/18 02:41:07;;;;;;;3.45;3.10;;;;;;;13.87;96.85;100213.89;1688761;84;21015;-71
2022/07/18 02:43:34;;;;;;;4.87;2.90;;;;;;;13.85;96.93;100203.89;1688973;84;21038;-71
2022/07/18 02:46:00;;;;;;;4.60;3.10;;;;;;;13.81;97.04;100206.84;1689410;84;21349;-72
2022/07/18 02:48:28;;;;;;;3.40;3.10;;;;;;;13.79;97.28;100214.38;1703222;83;20979;-72
2022/07/18 02:50:55;;;;;;;4.42;2.90;;;;;;;13.76;97.50;100210.84;1689065;85;21254;-71
2022/07/18 02:53:23;;;;;;;6.03;3.12;;;;;;;13.76;97.72;100210.31;1689316;84;22244;-71
2022/07/18 02:55:51;;;;;;;8.63;3.72;;;;;;;13.76;97.88;100215.72;1689264;85;21474;-71
2022/07/18 02:58:18;;;;;;;8.35;3.42;;;;;;;13.77;98.07;100213.27;1667753;85;21060;-71
2022/07/18 03:00:45;;;;;;;9.55;3.80;;;;;;;13.80;98.09;100219.53;1665486;85;21091;-70
2022/07/18 03:03:12;;;;;;;4.75;3.42;;;;;;;13.84;98.04;100223.34;1689333;85;21259;-72
2022/07/18 03:05:38;;;;;;;6.40;4.28;;;;;;;13.87;97.97;100216.06;1689359;85;21536;-74
2022/07/18 03:08:05;;;;;;;5.12;3.92;;;;;;;13.87;97.76;100220.12;1690279;84;21028;-73
2022/07/18 03:10:32;;;;;;;5.40;3.27;;;;;;;13.85;97.68;100223.63;1660053;85;21168;-74
2022/07/18 03:12:58;;;;;;;5.22;3.72;;;;;;;13.85;97.65;100223.63;1675090;85;21119;-73
2022/07/18 03:15:25;;;;;;;5.20;2.80;;;;;;;13.88;97.71;100220.94;1659495;85;22022;-73
2022/07/18 03:17:52;;;;;;;4.05;3.02;;;;;;;13.90;97.50;100225.56;1632265;86;21065;-75
2022/07/18 03:20:19;;;;;;;4.22;2.58;;;;;;;13.90;97.34;100226.38;1646410;87;21016;-73
2022/07/18 03:22:46;;;;;;;4.92;3.27;;;;;;;13.89;97.02;100229.34;1657578;85;21585;-75
2022/07/18 03:25:12;;;;;;;3.58;3.17;;;;;;;13.86;96.84;100225.81;1659800;85;20991;-73
2022/07/18 03:27:41;;;;;;;3.92;3.20;;;;;;;13.81;96.75;100233.31;1646263;87;21287;-74
2022/07/18 03:30:10;;;;;;;6.12;5.22;;;;;;;13.80;96.83;100243.05;1632657;87;21035;-72
2022/07/18 03:32:37;;;;;;;4.47;2.62;;;;;;;13.78;96.80;100243.83;1632139;87;21020;-73
2022/07/18 03:35:05;;;;;;;5.40;3.20;;;;;;;13.78;96.95;100247.89;1647814;87;21112;-70
2022/07/18 03:37:32;;;;;;;3.60;3.30;;;;;;;13.79;96.87;100250.34;1668507;85;21080;-72
2022/07/18 03:39:59;;;;;;;2.92;2.72;;;;;;;13.81;96.80;100256.29;1676612;85;21142;-71
2022/07/18 03:42:25;;;;;;;3.52;3.22;;;;;;;13.81;96.65;100250.09;1651036;85;21052;-71
2022/07/18 03:44:52;;;;;;;6.47;3.37;;;;;;;13.79;96.40;100253.05;1648267;87;21573;-70
2022/07/18 03:47:20;;;;;;;3.80;3.40;;;;;;;13.80;96.42;100249.81;1647349;87;21096;-68
2022/07/18 03:49:47;;;;;;;3.65;3.30;;;;;;;13.81;96.39;100244.13;1646350;87;21104;-69
2022/07/18 03:52:13;;;;;;;3.87;3.25;;;;;;;13.82;96.42;100243.59;1646626;87;21116;-70
2022/07/18 03:54:40;;;;;;;7.47;4.05;;;;;;;13.84;96.36;100244.16;1647882;87;21076;-71
2022/07/18 03:57:07;;;;;;;4.78;3.25;;;;;;;13.86;96.22;100262.31;1646908;87;21561;-69
2022/07/18 03:59:35;;;;;;;3.98;3.15;;;;;;;13.85;96.23;100253.91;1648710;87;21059;-68
2022/07/18 04:02:02;;;;;;;4.53;4.12;;;;;;;13.85;96.20;100254.73;1664080;85;21036;-69
2022/07/18 04:04:29;;;;;;;4.40;3.10;;;;;;;13.86;96.18;100265.02;1614420;87;21933;-71
2022/07/18 04:06:59;;;;;;;3.90;3.50;;;;;;;13.88;96.23;100266.91;1651115;85;21076;-70
2022/07/18 04:09:27;;;;;;;3.67;3.17;;;;;;;13.91;96.39;100269.09;1658836;84;20987;-68
2022/07/18 04:11:55;;;;;;;3.25;2.98;;;;;;;13.95;96.44;100259.41;1667805;86;21029;-69
2022/07/18 04:14:25;;;;;;;3.27;2.60;;;;;;;14.00;96.45;100261.34;1654307;86;21043;-70
2022/07/18 04:16:52;;;;;;;3.30;2.98;;;;;;;14.02;96.34;100264.05;1662694;85;21851;-71
2022/07/18 04:19:21;;;;;;;4.05;2.70;;;;;;;14.05;96.28;100266.79;1664476;86;21158;-69
2022/07/18 04:21:48;;;;;;;4.78;2.75;;;;;;;14.09;96.19;100267.90;1647926;87;20947;-69
2022/07/18 04:24:15;;;;;;;3.25;2.95;;;;;;;14.10;96.06;100266.27;1648463;86;21044;-70
2022/07/18 04:26:42;;;;;;;3.12;2.52;;;;;;;14.15;96.04;100269.58;1650826;86;21133;-71
2022/07/18 04:29:08;;;;;;;5.15;2.80;;;;;;;14.19;95.95;100267.45;1639064;86;21252;-69
2022/07/18 04:31:35;;;;;;;3.50;2.77;;;;;;;14.24;95.84;100264.78;1640427;86;20962;-69
2022/07/18 04:34:02;;;;;;;7.40;3.35;;;;;;;14.30;95.74;100266.42;1640734;87;21128;-73
2022/07/18 04:36:29;;;;;;;4.28;2.62;;;;;;;14.37;95.56;100271.66;1640473;86;21025;-71
2022/07/18 04:38:56;;;;;;;3.35;3.05;;;;;;;14.46;95.37;100271.44;1640719;87;21120;-71
2022/07/18 04:41:24;;;;;;;6.15;2.85;;;;;;;14.51;94.94;100263.35;1649280;86;21161;-73
2022/07/18 04:43:53;;;;;;;4.42;3.22;;;;;;;14.56;94.58;100275.56;1647940;85;21128;-71
2022/07/18 04:46:19;;;;;;;2.90;2.33;;;;;;;14.61;94.35;100273.42;1660106;86;21000;-70
2022/07/18 04:48:46;;;;;;;6.42;2.20;;;;;;;14.66;93.83;100276.17;1640158;87;21562;-70
2022/07/18 04:51:13;;;;;;;2.55;2.30;;;;;;;14.68;93.37;100279.41;1651458;86;21176;-70
2022/07/18 04:53:40;;;;;;;3.10;2.80;;;;;;;14.70;93.08;100277.27;1636013;86;21263;-69
2022/07/18 04:56:07;;;;;;;3.58;2.67;;;;;;;14.75;92.85;100274.59;1651413;86;21112;-69
2022/07/18 04:58:34;;;;;;;4.78;2.85;;;;;;;14.81;92.52;100273.55;1651001;85;21039;-74
2022/07/18 05:01:01;;;;;;;2.98;2.55;;;;;;;14.85;92.27;100271.94;1667520;86;21061;-71
2022/07/18 05:03:28;;;;;;;2.98;2.45;;;;;;;14.90;91.70;100273.31;1669256;86;21090;-69
2022/07/18 05:05:57;;;;;;;2.77;2.58;;;;;;;14.96;91.36;100266.03;1667818;85;21017;-70
2022/07/18 05:08:23;;;;;;;2.75;2.55;;;;;;;15.02;91.05;100269.02;1667105;86;21644;-69
2022/07/18 05:10:50;;;;;;;3.30;2.70;;;;;;;15.08;90.58;100272.84;1687060;84;21055;-70
2022/07/18 05:13:17;;;;;;;4.22;2.22;;;;;;;15.16;90.12;100264.73;1703285;84;21132;-71
2022/07/18 05:15:45;;;;;;;2.45;2.27;;;;;;;15.21;89.65;100270.98;1689376;85;21505;-71
2022/07/18 05:18:12;;;;;;;2.72;2.52;;;;;;;15.25;89.30;100270.73;1689525;84;21153;-71
2022/07/18 05:20:41;;;;;;;4.62;2.10;;;;;;;15.30;88.83;100262.36;1689437;85;21056;-71
2022/07/18 05:23:08;;;;;;;3.40;2.25;;;;;;;15.36;88.71;100262.62;1689513;84;21019;-71
2022/07/18 05:25:35;;;;;;;3.37;2.17;;;;;;;15.42;88.18;100268.34;1689354;84;21060;-70
2022/07/18 05:28:05;;;;;;;2.08;1.87;;;;;;;15.48;87.96;100262.68;1689496;85;20978;-73
2022/07/18 05:30:32;;;;;;;4.45;2.80;;;;;;;15.56;87.60;100264.88;1639439;85;21081;-70
2022/07/18 05:32:59;;;;;;;8.00;5.65;;;;;;;15.66;87.42;100258.66;1676774;85;21502;-69
2022/07/18 05:35:26;;;;;;;2.60;2.40;;;;;;;15.75;86.92;100263.83;1675131;85;21080;-69
2022/07/18 05:37:53;;;;;;;2.22;2.02;;;;;;;15.82;86.57;100271.70;1682190;84;21079;-70
2022/07/18 05:40:20;;;;;;;2.55;2.00;;;;;;;15.89;86.07;100280.38;1673134;85;21500;-74
2022/07/18 05:42:46;;;;;;;4.75;2.75;;;;;;;15.95;84.84;100281.48;1649247;85;21329;-74
2022/07/18 05:45:14;;;;;;;3.35;2.30;;;;;;;16.01;84.02;100272.27;1689284;85;21025;-72
2022/07/18 05:47:41;;;;;;;2.42;2.22;;;;;;;16.09;83.65;100273.06;1702378;84;21094;-73
2022/07/18 05:50:09;;;;;;;2.55;2.35;;;;;;;16.15;83.32;100272.53;1689091;85;21537;-70
2022/07/18 05:52:36;;;;;;;4.28;2.50;;;;;;;16.19;82.64;100271.44;1671753;85;21047;-72
2022/07/18 05:55:06;;;;;;;8.15;2.45;;;;;;;16.22;81.84;100279.84;1703313;84;21133;-68
2022/07/18 05:57:32;;;;;;;3.17;2.47;;;;;;;16.26;81.39;100274.13;1668310;85;21059;-68
2022/07/18 06:00:00;;;;;;;4.10;2.08;;;;;;;16.32;81.14;100268.97;1689615;85;21535;-69
2022/07/18 06:02:27;;;;;;;6.67;2.72;;;;;;;16.40;81.04;100263.55;1689286;84;21072;-72
2022/07/18 06:04:53;;;;;;;4.47;2.20;;;;;;;16.49;80.79;100275.48;1703304;83;21068;-70
2022/07/18 06:07:20;;;;;;;2.62;2.15;;;;;;;16.54;79.98;100265.42;1680111;84;21900;-69
2022/07/18 06:09:47;;;;;;;5.53;2.37;;;;;;;16.60;79.84;100270.84;1655852;86;21039;-69
2022/07/18 06:12:15;;;;;;;2.52;1.98;;;;;;;16.66;79.37;100271.11;1685033;85;21022;-70
2022/07/18 06:14:42;;;;;;;1.87;1.77;;;;;;;16.69;78.04;100265.94;1685018;84;22271;-70
2022/07/18 06:17:09;;;;;;;2.90;2.00;;;;;;;16.77;77.53;100279.52;1684056;85;21060;-71
2022/07/18 06:19:36;;;;;;;1.82;1.72;;;;;;;16.84;76.58;100267.80;1684059;85;21116;-72
2022/07/18 06:22:03;;;;;;;2.37;1.70;;;;;;;16.91;76.65;100272.41;1684629;84;20999;-71
2022/07/18 06:24:31;;;;;;;4.95;2.40;;;;;;;16.97;76.59;100259.89;1661910;84;21200;-74
2022/07/18 06:26:58;;;;;;;4.00;2.50;;;;;;;17.03;76.45;100263.38;1684548;85;21578;-70
2022/07/18 06:29:24;;;;;;;4.83;2.40;;;;;;;17.10;76.18;100271.24;1698679;84;21102;-69
2022/07/18 06:31:51;;;;;;;2.35;2.02;;;;;;;17.15;75.62;100281.55;1697811;84;21969;-70
2022/07/18 06:34:19;;;;;;;2.98;2.37;;;;;;;17.22;75.30;100277.97;1600532;88;21535;-68
2022/07/18 06:36:46;;;;;;;3.25;1.80;;;;;;;17.29;74.80;100264.89;1621916;88;21731;-73
2022/07/18 06:39:18;;;;;;;2.70;1.60;;;;;;;17.36;74.25;100277.63;1603518;88;21159;-71
2022/07/18 06:41:43;;;;;;;3.33;2.00;;;;;;;17.44;73.36;100270.26;1596479;89;21102;-70
2022/07/18 06:44:13;;;;;;;5.60;2.08;;;;;;;17.50;72.80;100269.69;1596188;89;21140;-68
2022/07/18 06:46:40;;;;;;;4.25;1.95;;;;;;;17.55;72.63;100269.66;1617124;88;20981;-71
2022/07/18 06:49:09;;;;;;;4.42;2.12;;;;;;;17.59;72.17;100269.92;1615841;88;21102;-71
2022/07/18 06:51:36;;;;;;;2.35;2.00;;;;;;;17.63;72.33;100271.80;1608662;88;21039;-69
2022/07/18 06:54:03;;;;;;;2.85;2.62;;;;;;;17.68;72.24;100264.97;1622348;88;21098;-68
2022/07/18 06:56:30;;;;;;;1.80;1.70;;;;;;;17.72;72.16;100271.47;1599202;88;21265;-72
2022/07/18 06:58:56;;;;;;;5.47;1.87;;;;;;;17.78;71.84;100273.06;1658807;84;21031;-69
2022/07/18 07:01:25;;;;;;;2.40;1.80;;;;;;;17.82;71.86;100255.06;1685039;84;21068;-71
2022/07/18 07:03:53;;;;;;;3.25;2.42;;;;;;;17.91;71.77;100262.62;1698741;84;21024;-71
2022/07/18 07:06:20;;;;;;;3.10;2.40;;;;;;;18.01;71.40;100268.80;1684848;85;21047;-69
2022/07/18 07:08:47;;;;;;;6.20;2.47;;;;;;;18.10;71.27;100264.36;1698375;84;21553;-70
2022/07/18 07:11:14;;;;;;;6.20;2.05;;;;;;;18.20;71.01;100271.08;1675307;84;20994;-69
2022/07/18 07:13:41;;;;;;;2.90;2.40;;;;;;;18.28;70.75;100274.55;1646155;87;22162;-72
2022/07/18 07:16:08;;;;;;;2.27;1.95;;;;;;;18.33;69.57;100270.95;1669531;85;21150;-69
2022/07/18 07:18:35;;;;;;;2.50;2.08;;;;;;;18.35;68.02;100272.05;1670980;85;21222;-71
2022/07/18 07:21:02;;;;;;;7.42;4.25;;;;;;;18.38;67.08;100262.74;1673733;85;21274;-68
2022/07/18 07:23:29;;;;;;;2.83;1.35;;;;;;;18.42;66.99;100268.42;1669354;85;21010;-69
2022/07/18 07:25:57;;;;;;;1.85;1.70;;;;;;;18.44;67.38;100264.33;1671181;85;21042;-69
2022/07/18 07:28:23;;;;;;;2.98;2.60;;;;;;;18.48;67.41;100271.36;1674813;84;21033;-70
2022/07/18 07:30:50;;;;;;;2.30;2.10;;;;;;;18.50;66.93;100272.72;1673463;85;21030;-69
2022/07/18 07:33:17;;;;;;;4.67;1.60;;;;;;;18.53;66.42;100271.31;1675100;85;21093;-69
2022/07/18 07:35:44;;;;;;;2.12;1.92;;;;;;;18.55;66.45;100268.61;1673667;84;21030;-68
2022/07/18 07:38:17;;;;;;;6.10;1.62;;;;;;;18.57;66.11;100273.20;1646127;86;20994;-72
2022/07/18 07:40:41;;;;;;;1.70;1.60;;;;;;;18.64;66.20;100275.59;1673883;84;21210;-69
2022/07/18 07:43:12;;;;;;;1.60;1.50;;;;;;;18.68;65.94;100267.92;1675539;84;21538;-70
2022/07/18 07:45:39;;;;;;;4.12;1.90;;;;;;;18.76;65.42;100281.99;1674125;85;21113;-68
2022/07/18 07:48:06;;;;;;;7.05;1.75;;;;;;;18.79;64.80;100271.90;1673799;85;21026;-69
2022/07/18 07:50:34;;;;;;;1.80;1.60;;;;;;;18.84;65.20;100261.75;1675223;84;21034;-70
2022/07/18 07:53:01;;;;;;;4.12;3.17;;;;;;;18.93;65.43;100262.73;1673568;85;21038;-70
2022/07/18 07:55:28;;;;;;;3.77;1.70;;;;;;;19.04;64.87;100266.94;1673872;85;20995;-71
2022/07/18 07:57:55;;;;;;;1.67;1.57;;;;;;;19.12;64.47;100274.49;1672731;85;21155;-69
2022/07/18 08:00:22;;;;;;;3.35;2.30;;;;;;;19.20;63.28;100283.11;1673805;84;21093;-70
2022/07/18 08:02:59;;;;;;;2.75;1.77;;;;;;;19.27;62.40;100268.03;1673723;85;21020;-70
2022/07/18 08:05:32;;;;;;;4.67;1.72;;;;;;;19.33;62.75;100279.11;1674067;85;21097;-70
2022/07/18 08:07:59;;;;;;;2.30;1.57;;;;;;;19.37;62.50;100277.45;1669373;85;21023;-72
2022/07/18 08:10:26;;;;;;;2.30;1.47;;;;;;;19.43;61.99;100279.53;1675127;84;21131;-69
2022/07/18 08:12:53;;;;;;;2.05;1.27;;;;;;;19.47;60.83;100269.70;1673778;85;21003;-71
2022/07/18 08:15:20;;;;;;;1.92;1.80;;;;;;;19.50;60.15;100285.48;1675342;85;21574;-68
2022/07/18 08:17:47;;;;;;;3.50;1.62;;;;;;;19.53;60.01;100281.59;1673774;85;21014;-72
2022/07/18 08:20:16;;;;;;;1.42;1.07;;;;;;;19.59;59.48;100277.70;1675296;84;21049;-71
2022/07/18 08:22:59;;;;;;;3.02;2.05;;;;;;;19.67;59.48;100280.85;1673736;85;21324;-70
2022/07/18 08:25:27;;;;;;;2.52;1.60;;;;;;;19.73;58.93;100279.12;1673605;84;21043;-69
2022/07/18 08:27:54;;;;;;;1.60;1.50;;;;;;;19.78;59.09;100266.77;1673602;84;21093;-68
2022/07/18 08:30:20;;;;;;;1.30;1.20;;;;;;;19.85;58.33;100284.15;1673823;85;21063;-69
2022/07/18 08:32:47;;;;;;;5.28;1.30;;;;;;;19.90;56.40;100276.67;1673720;85;21066;-69
2022/07/18 08:35:14;;;;;;;1.65;1.10;;;;;;;19.94;56.46;100272.27;1673848;85;21263;-70
2022/07/18 08:37:41;;;;;;;1.15;1.05;;;;;;;20.01;55.83;100271.86;1673761;85;21039;-70
2022/07/18 08:40:10;;;;;;;2.65;1.45;;;;;;;20.01;55.79;100293.70;1673906;85;21067;-71
2022/07/18 08:42:38;;;;;;;1.32;1.22;;;;;;;20.02;56.69;100286.59;1672463;84;23297;-70
2022/07/18 08:45:08;;;;;;;1.35;1.25;;;;;;;20.00;56.03;100301.09;1673930;85;20989;-71
2022/07/18 08:47:35;;;;;;;1.15;1.05;;;;;;;20.00;56.75;100275.69;1673436;85;21830;-71
2022/07/18 08:50:01;;;;;;;2.87;1.20;;;;;;;20.02;56.81;100278.41;1673687;85;21108;-70
2022/07/18 08:52:29;;;;;;;1.22;1.12;;;;;;;20.03;56.18;100303.24;1672900;85;20959;-70
2022/07/18 08:54:56;;;;;;;3.67;1.47;;;;;;;20.03;56.54;100294.23;1673424;85;21542;-70
2022/07/18 08:57:23;;;;;;;1.20;1.10;;;;;;;20.03;56.64;100275.12;1673941;85;21057;-73
2022/07/18 08:59:50;;;;;;;2.65;1.30;;;;;;;20.08;56.73;100285.14;1673138;84;21255;-68
2022/07/18 09:02:17;;;;;;;1.32;0.90;;;;;;;20.16;56.77;100294.83;1654759;85;21023;-69
2022/07/18 09:04:44;;;;;;;1.47;1.05;;;;;;;20.29;54.96;100283.68;1675202;84;21528;-69
2022/07/18 09:07:29;;;;;;;1.42;1.32;;;;;;;20.36;54.59;100270.48;1673022;84;21524;-72
2022/07/18 09:09:58;;;;;;;2.25;1.17;;;;;;;20.44;53.83;100273.33;1670280;84;21014;-74
2022/07/18 09:12:28;;;;;;;2.17;1.65;;;;;;;20.54;53.95;100265.50;1666871;85;21124;-71
2022/07/18 09:14:55;;;;;;;2.92;1.25;;;;;;;20.63;53.63;100272.44;1673324;85;21058;-71
2022/07/18 09:17:32;;;;;;;1.17;1.17;;;;;;;20.69;53.54;100269.31;1673197;85;21069;-70
2022/07/18 09:20:11;;;;;;;2.12;1.00;;;;;;;20.74;52.86;100271.95;1684151;84;21064;-69
2022/07/18 09:22:39;;;;;;;1.05;0.95;;;;;;;20.79;51.35;100284.72;1678920;85;21034;-70
2022/07/18 09:25:09;;;;;;;2.25;1.20;;;;;;;20.82;51.70;100254.84;1684350;84;21313;-71
2022/07/18 09:27:48;;;;;;;0.98;0.70;;;;;;;20.82;51.70;100254.84;1683985;85;21041;-71
2022/07/18 09:30:32;;;;;;;2.08;1.00;;;;;;;20.83;50.92;100259.20;1684452;84;21040;-71
2022/07/18 09:33:07;;;;;;;4.97;1.15;;;;;;;20.92;51.53;100261.22;1698591;83;20993;-69
2022/07/18 09:35:49;;;;;;;1.72;1.00;;;;;;;20.99;52.23;100278.05;1668550;86;21550;-73
2022/07/18 09:38:21;;;;;;;1.12;0.72;;;;;;;21.06;50.23;100267.48;1683688;85;21780;-70
2022/07/18 09:40:52;;;;;;;1.25;1.15;;;;;;;21.09;49.63;100284.67;1692242;84;27673;-68
2022/07/18 09:43:22;;;;;;;0.80;0.80;;;;;;;21.11;49.72;100279.14;1697143;84;21087;-70
2022/07/18 09:45:54;;;;;;;1.12;1.00;;;;;;;21.17;49.42;100260.73;1682667;84;21060;-73
2022/07/18 09:48:25;;;;;;;0.80;0.80;;;;;;;21.28;49.45;100278.56;1697941;83;21091;-72
2022/07/18 09:51:05;;;;;;;1.92;1.00;;;;;;;21.38;49.31;100283.81;1673632;85;21944;-73
2022/07/18 09:53:41;;;;;;;0.90;0.90;;;;;;;21.46;48.78;100302.23;1676873;85;20958;-69
2022/07/18 09:56:23;;;;;;;1.10;1.00;;;;;;;21.47;48.54;100275.13;1670219;85;21037;-71
2022/07/18 09:58:53;;;;;;;0.57;0.57;;;;;;;21.50;47.45;100261.37;1682837;84;21002;-70
2022/07/18 10:01:20;;;;;;;0.98;0.80;;;;;;;21.56;47.59;100261.51;1684907;85;21099;-69
2022/07/18 10:03:48;;;;;;;1.25;1.02;;;;;;;21.66;46.22;100270.86;1698263;83;22096;-69
2022/07/18 10:06:16;;;;;;;0.98;0.80;;;;;;;21.71;45.82;100268.83;1698361;84;21033;-72
2022/07/18 10:08:43;;;;;;;1.17;1.07;;;;;;;21.72;46.28;100278.66;1684201;84;21059;-69
2022/07/18 10:11:19;;;;;;;2.40;1.10;;;;;;;21.82;46.77;100263.92;1855386;75;27606;-69
2022/07/18 10:13:47;;;;;;;1.25;0.90;;;;;;;21.83;46.87;100267.44;1837078;77;21488;-72
2022/07/18 10:16:14;;;;;;;2.22;0.90;;;;;;;21.83;46.95;100294.83;1821367;77;21770;-71
2022/07/18 10:18:41;;;;;;;1.32;0.90;;;;;;;21.72;46.09;100276.48;1848989;77;20987;-69
2022/07/18 10:21:12;;;;;;;0.55;0.55;;;;;;;21.61;45.90;100280.56;1749246;81;20937;-69
2022/07/18 10:23:47;;;;;;;2.72;0.65;;;;;;;21.57;46.45;100272.72;1788728;78;21110;-71
2022/07/18 10:26:21;;;;;;;1.92;0.70;;;;;;;21.56;45.17;100269.73;1810703;77;21520;-70
2022/07/18 10:29:00;;;;;;;1.02;0.93;;;;;;;21.60;45.73;100257.84;1818160;77;21875;-68
2022/07/18 10:31:38;;;;;;;2.65;0.90;;;;;;;21.72;45.74;100249.09;1821081;77;20987;-68
2022/07/18 10:34:10;;;;;;;9.48;0.90;;;;;;;21.84;45.78;100268.52;1814381;78;20913;-70
2022/07/18 10:37:01;;;;;;;0.95;0.85;;;;;;;21.95;45.55;100249.38;1803802;77;21002;-72
2022/07/18 10:39:36;;;;;;;0.60;0.60;;;;;;;22.05;45.27;100256.54;1787705;77;20964;-70
2022/07/18 10:42:12;;;;;;;0.62;0.62;;;;;;;22.15;42.73;100250.25;1813127;77;21439;-74
2022/07/18 10:44:40;;;;;;;2.92;0.80;;;;;;;22.26;42.42;100244.48;1792078;78;20971;-74
2022/07/18 10:47:17;;;;;;;1.37;0.78;;;;;;;22.37;42.14;100254.06;1788737;78;20957;-76
2022/07/18 10:49:59;;;;;;;0.72;0.70;;;;;;;22.46;42.26;100252.17;1796937;78;21461;-70
2022/07/18 10:52:36;;;;;;;1.82;0.50;;;;;;;22.56;41.78;100222.55;1790468;80;22185;-70
2022/07/18 10:55:16;;;;;;;5.42;0.80;;;;;;;22.67;41.60;100246.39;1788859;78;21495;-68
2022/07/18 10:57:42;;;;;;;0.60;0.60;;;;;;;22.66;41.44;100250.26;1775623;80;20975;-72
2022/07/18 11:00:15;;;;;;;0.80;0.80;;;;;;;22.67;41.04;100255.19;1773762;78;20934;-81
2022/07/18 11:02:45;;;;;;;2.83;0.70;;;;;;;22.59;41.71;100230.69;1790119;80;20974;-77
2022/07/18 11:05:29;;;;;;;1.40;1.00;;;;;;;22.59;42.26;100247.14;1790250;78;21020;-78
2022/07/18 11:08:05;;;;;;;0.68;0.60;;;;;;;22.59;42.68;100258.92;1789266;80;21235;-82
2022/07/18 11:10:57;;;;;;;2.40;0.70;;;;;;;22.53;42.27;100278.03;1799387;79;20979;-77
2022/07/18 11:13:49;;;;;;;0.80;0.80;;;;;;;22.43;42.98;100262.41;1797240;79;21231;-77
2022/07/18 11:16:25;;;;;;;1.37;0.82;;;;;;;22.41;44.01;100280.53;1807932;79;21450;-78
2022/07/18 11:18:57;;;;;;;1.75;1.10;;;;;;;22.43;44.36;100264.59;1786608;79;21204;-79
2022/07/18 11:21:30;;;;;;;2.90;0.90;;;;;;;22.44;44.10;100251.14;1817458;78;21743;-76
2022/07/18 11:24:08;;;;;;;3.22;1.67;;;;;;;22.46;44.25;100243.39;1809499;79;20999;-74
2022/07/18 11:26:39;;;;;;;0.78;0.75;;;;;;;22.51;43.97;100238.33;1757517;80;21047;-70
2022/07/18 11:29:10;;;;;;;0.78;0.78;;;;;;;22.51;43.03;100243.25;1784988;79;20960;-74
2022/07/18 11:31:52;;;;;;;0.62;0.60;;;;;;;22.54;41.94;100246.73;1784567;79;21036;-69
2022/07/18 11:34:37;;;;;;;2.10;0.80;;;;;;;22.59;41.97;100233.44;1784280;79;21059;-70